Time;durP1;ratioP1;P1;durP2;ratioP2;P2;SDS_P1;SDS_P2;PMS_P1;PMS_P2;Temp;Humidity;BMP_temperature;BMP_pressure;BME280_temperature;BME280_humidity;BME280_pressure;Samples;Min_cycle;Max_cycle;Signal;HPM_P1;HPM_P2
2021/06/23 00:01:11;;;;;;;8.88;5.63;;;;;;;14.61;100.00;100939.41;3585931;39;20466;-55
2021/06/23 00:03:38;;;;;;;7.47;6.15;;;;;;;14.54;100.00;100932.44;3585721;39;20077;-59
2021/06/23 00:06:05;;;;;;;7.60;5.68;;;;;;;15.05;99.29;100943.38;3586218;39;20131;-56
2021/06/23 00:08:32;;;;;;;8.05;5.43;;;;;;;15.16;97.97;100944.34;3585584;39;20076;-58
2021/06/23 00:11:00;;;;;;;7.82;5.57;;;;;;;15.30;96.21;100942.81;3585922;39;20368;-57
2021/06/23 00:13:30;;;;;;;9.55;5.80;;;;;;;15.03;97.28;100940.78;3585677;39;20568;-56
2021/06/23 00:15:57;;;;;;;7.07;5.85;;;;;;;14.55;100.00;100938.44;3585845;39;20092;-58
2021/06/23 00:18:25;;;;;;;9.32;6.22;;;;;;;14.35;100.00;100940.72;3585271;39;20692;-55
2021/06/23 00:20:52;;;;;;;8.30;5.80;;;;;;;14.61;100.00;100942.00;3586013;39;20114;-59
2021/06/23 00:23:19;;;;;;;9.80;5.88;;;;;;;14.76;99.90;100941.31;3585291;39;20104;-56
2021/06/23 00:25:46;;;;;;;7.05;5.63;;;;;;;14.70;99.97;100943.81;3585614;39;20096;-56
2021/06/23 00:28:13;;;;;;;7.68;6.25;;;;;;;14.36;100.00;100945.91;3585274;39;20056;-57
2021/06/23 00:30:47;;;;;;;8.10;7.30;;;;;;;14.66;100.00;100955.81;3585499;39;20092;-57
2021/06/23 00:33:21;;;;;;;9.02;6.25;;;;;;;14.69;100.00;100957.53;3584974;39;20055;-58
2021/06/23 00:35:49;;;;;;;9.50;7.13;;;;;;;14.30;100.00;100960.41;3585591;39;20075;-56
2021/06/23 00:38:19;;;;;;;7.28;6.57;;;;;;;14.29;100.00;100961.25;3581830;39;20248;-57
2021/06/23 00:40:46;;;;;;;11.60;6.30;;;;;;;14.58;100.00;100969.44;3585306;39;20067;-58
2021/06/23 00:43:14;;;;;;;8.05;6.07;;;;;;;14.68;100.00;100968.69;3585346;39;20044;-54
2021/06/23 00:45:44;;;;;;;8.48;6.13;;;;;;;14.34;100.00;100965.63;3585318;39;20047;-57
2021/06/23 00:48:21;;;;;;;7.13;6.10;;;;;;;14.40;100.00;100957.97;3585538;39;20092;-56
2021/06/23 00:50:48;;;;;;;10.70;7.10;;;;;;;14.16;100.00;100960.19;3585605;39;20151;-59
2021/06/23 00:53:15;;;;;;;7.97;6.88;;;;;;;14.02;100.00;100952.25;3585023;39;20073;-57
2021/06/23 00:55:43;;;;;;;7.70;6.40;;;;;;;14.73;100.00;100952.44;3585305;39;20326;-56
2021/06/23 00:58:12;;;;;;;7.40;6.43;;;;;;;14.83;99.75;100958.56;3585438;39;20048;-56
2021/06/23 01:00:40;;;;;;;8.30;6.45;;;;;;;14.97;98.75;100959.59;3585001;39;20076;-58
2021/06/23 01:03:09;;;;;;;8.48;6.50;;;;;;;14.40;100.00;100959.69;3580727;39;20107;-57
2021/06/23 01:05:38;;;;;;;7.80;6.20;;;;;;;14.14;100.00;100964.44;3585030;39;20049;-56
2021/06/23 01:08:08;;;;;;;8.52;7.25;;;;;;;14.11;100.00;100956.69;3585512;39;20348;-56
2021/06/23 01:10:35;;;;;;;10.73;6.55;;;;;;;14.40;100.00;100962.28;3584815;39;20056;-55
2021/06/23 01:13:30;;;;;;;9.52;5.95;;;;;;;13.93;100.00;100965.84;3585090;39;20119;-58
2021/06/23 01:15:59;;;;;;;7.57;6.53;;;;;;;13.85;100.00;100959.69;3585491;39;20036;-57
2021/06/23 01:18:26;;;;;;;8.30;6.75;;;;;;;14.10;100.00;100965.28;3584925;39;20092;-57
2021/06/23 01:20:54;;;;;;;8.13;6.43;;;;;;;13.94;100.00;100974.44;3585580;39;20188;-58
2021/06/23 01:23:21;;;;;;;8.63;6.70;;;;;;;13.93;100.00;100970.13;3584726;39;20129;-55
2021/06/23 01:25:51;;;;;;;10.98;6.22;;;;;;;14.07;100.00;100983.22;3585255;39;20176;-58
2021/06/23 01:28:19;;;;;;;7.95;6.32;;;;;;;14.15;100.00;100986.81;3581510;39;20442;-58
2021/06/23 01:30:47;;;;;;;9.32;6.35;;;;;;;14.60;100.00;100988.34;3585174;39;20068;-58
2021/06/23 01:33:14;;;;;;;10.35;6.50;;;;;;;14.08;100.00;100985.81;3584973;39;20084;-55
2021/06/23 01:35:45;;;;;;;9.80;6.25;;;;;;;13.84;100.00;100965.69;3585223;39;20072;-59
2021/06/23 01:38:13;;;;;;;7.95;6.47;;;;;;;14.01;100.00;100974.56;3585300;39;20088;-54
2021/06/23 01:40:40;;;;;;;9.57;6.80;;;;;;;14.43;100.00;100980.34;3584918;39;20056;-56
2021/06/23 01:43:09;;;;;;;9.50;7.45;;;;;;;14.02;100.00;100988.31;3584142;39;20048;-57
2021/06/23 01:45:37;;;;;;;8.00;6.50;;;;;;;13.59;100.00;100974.72;3584836;39;20100;-56
2021/06/23 01:48:05;;;;;;;7.63;6.82;;;;;;;14.05;100.00;100977.16;3585167;39;20055;-58
2021/06/23 01:50:32;;;;;;;9.35;6.45;;;;;;;14.06;100.00;100982.38;3584992;39;20096;-58
2021/06/23 01:53:00;;;;;;;9.18;7.05;;;;;;;13.93;100.00;100990.72;3585459;39;20500;-58
2021/06/23 01:55:30;;;;;;;8.88;6.75;;;;;;;14.03;100.00;100987.47;3584925;39;20052;-55
2021/06/23 01:58:06;;;;;;;7.68;6.15;;;;;;;13.95;100.00;100997.63;3585440;39;20101;-57
2021/06/23 02:00:35;;;;;;;7.93;7.13;;;;;;;14.05;100.00;101003.81;3584402;39;20106;-56
2021/06/23 02:03:19;;;;;;;11.60;7.75;;;;;;;14.04;100.00;101011.50;3585284;39;20071;-54
2021/06/23 02:05:46;;;;;;;7.80;6.88;;;;;;;13.84;100.00;101021.47;3585243;39;20430;-59
2021/06/23 02:08:31;;;;;;;7.78;6.97;;;;;;;13.69;100.00;101022.06;3585095;39;20407;-57
2021/06/23 02:11:28;;;;;;;8.48;7.50;;;;;;;13.43;100.00;101024.13;3585265;39;20048;-57
2021/06/23 02:14:19;;;;;;;8.80;7.03;;;;;;;13.34;100.00;101027.38;3585224;39;20052;-58
2021/06/23 02:16:48;;;;;;;9.65;7.30;;;;;;;13.28;100.00;101027.28;3584707;39;20112;-55
2021/06/23 02:19:16;;;;;;;8.30;6.78;;;;;;;13.60;100.00;101025.34;3584538;39;20068;-55
2021/06/23 02:21:43;;;;;;;9.68;6.88;;;;;;;13.75;100.00;101020.44;3584713;39;20425;-57
2021/06/23 02:24:11;;;;;;;7.50;6.70;;;;;;;13.38;100.00;101012.91;3584975;39;20056;-57
2021/06/23 02:26:39;;;;;;;11.48;7.13;;;;;;;13.23;100.00;101008.31;3584694;39;20065;-59
2021/06/23 02:29:07;;;;;;;8.43;7.35;;;;;;;13.08;100.00;101010.53;3580222;39;20117;-58
2021/06/23 02:31:39;;;;;;;10.63;7.03;;;;;;;13.08;100.00;101001.13;3584358;39;20068;-57
2021/06/23 02:34:14;;;;;;;12.30;8.30;;;;;;;13.10;100.00;100996.88;3584924;39;20052;-56
2021/06/23 02:36:42;;;;;;;9.15;8.18;;;;;;;13.14;100.00;100996.13;3584708;39;20084;-57
2021/06/23 02:39:10;;;;;;;12.18;8.18;;;;;;;13.02;100.00;100998.41;3584316;39;20048;-57
2021/06/23 02:41:37;;;;;;;12.98;7.63;;;;;;;13.58;100.00;101003.84;3583837;39;20103;-57
2021/06/23 02:44:05;;;;;;;12.65;8.50;;;;;;;13.31;100.00;100999.06;3584903;39;20101;-58
2021/06/23 02:46:33;;;;;;;10.27;8.85;;;;;;;13.18;100.00;101012.47;3584278;39;20060;-57
2021/06/23 02:49:02;;;;;;;10.25;9.15;;;;;;;13.05;100.00;101003.63;3584810;39;20051;-57
2021/06/23 02:51:35;;;;;;;9.90;8.80;;;;;;;13.76;100.00;101011.03;3584305;39;20071;-57
2021/06/23 02:54:02;;;;;;;13.23;8.73;;;;;;;13.72;100.00;101007.50;3584903;39;20092;-58
2021/06/23 02:56:29;;;;;;;12.85;8.20;;;;;;;13.62;100.00;101005.63;3584496;39;20466;-59
2021/06/23 02:58:59;;;;;;;11.48;7.72;;;;;;;13.55;100.00;101010.66;3584648;39;20061;-58
2021/06/23 03:01:26;;;;;;;11.75;8.68;;;;;;;13.57;100.00;101007.25;3584388;39;20120;-58
2021/06/23 03:03:53;;;;;;;11.05;8.43;;;;;;;13.56;100.00;101010.66;3584911;39;20080;-58
2021/06/23 03:06:22;;;;;;;9.65;7.35;;;;;;;14.01;100.00;101020.91;3584300;39;20121;-55
2021/06/23 03:08:49;;;;;;;9.55;7.47;;;;;;;14.08;100.00;101028.75;3584442;39;20102;-59
2021/06/23 03:11:16;;;;;;;10.48;7.53;;;;;;;14.16;100.00;101032.31;3584480;39;20321;-59
2021/06/23 03:13:43;;;;;;;10.82;6.60;;;;;;;14.35;99.41;101029.19;3586189;39;20092;-57
2021/06/23 03:16:10;;;;;;;8.23;7.28;;;;;;;14.33;100.00;101036.03;3586068;39;20058;-58
2021/06/23 03:18:38;;;;;;;8.20;7.05;;;;;;;14.74;97.14;101039.28;3585704;39;20138;-56
2021/06/23 03:21:08;;;;;;;9.50;6.90;;;;;;;14.51;98.94;101044.09;3586653;39;20062;-55
2021/06/23 03:23:35;;;;;;;8.52;6.60;;;;;;;14.78;96.89;101037.56;3585624;39;20436;-55
2021/06/23 03:26:02;;;;;;;9.95;6.65;;;;;;;14.76;96.26;101047.88;3586049;39;20390;-59
2021/06/23 03:28:29;;;;;;;8.38;6.82;;;;;;;14.68;96.38;101040.88;3585399;39;20047;-57
2021/06/23 03:30:56;;;;;;;8.35;6.80;;;;;;;14.71;97.11;101033.19;3586236;39;20084;-54
2021/06/23 03:33:23;;;;;;;10.38;6.95;;;;;;;14.62;97.97;101038.22;3585679;39;20061;-55
2021/06/23 03:35:50;;;;;;;9.98;7.18;;;;;;;14.72;97.54;101045.22;3586224;39;20351;-57
2021/06/23 03:38:17;;;;;;;11.02;6.97;;;;;;;14.78;95.43;101048.75;3588257;39;20089;-59
2021/06/23 03:40:44;;;;;;;10.13;6.85;;;;;;;14.78;96.25;101047.88;3585676;39;20056;-57
2021/06/23 03:43:12;;;;;;;9.85;6.78;;;;;;;14.80;94.41;101050.50;3586099;39;20795;-55
2021/06/23 03:45:42;;;;;;;9.43;6.43;;;;;;;14.40;96.43;101053.31;3585951;39;20049;-59
2021/06/23 03:48:09;;;;;;;8.00;6.07;;;;;;;14.63;96.28;101055.41;3585996;39;20125;-56
2021/06/23 03:50:36;;;;;;;10.85;6.65;;;;;;;14.58;96.14;101057.91;3584851;39;20049;-59
2021/06/23 03:53:05;;;;;;;10.38;6.80;;;;;;;14.27;98.18;101059.97;3585896;39;20091;-60
2021/06/23 03:55:32;;;;;;;8.93;7.22;;;;;;;14.08;99.48;101055.34;3582634;39;20403;-59
2021/06/23 03:57:59;;;;;;;7.90;7.05;;;;;;;14.26;99.23;101060.81;3586198;39;20080;-58
2021/06/23 04:00:29;;;;;;;9.80;7.05;;;;;;;14.13;99.79;101055.44;3585106;39;20084;-55
2021/06/23 04:02:57;;;;;;;9.07;6.90;;;;;;;14.16;100.00;101056.34;3585933;39;20073;-59
2021/06/23 04:05:25;;;;;;;11.20;7.85;;;;;;;14.09;100.00;101062.22;3585463;39;20413;-58
2021/06/23 04:07:52;;;;;;;8.10;7.20;;;;;;;14.23;100.00;101070.19;3585691;39;20088;-56
2021/06/23 04:10:19;;;;;;;12.00;7.22;;;;;;;14.63;98.05;101066.59;3585076;39;20056;-55
2021/06/23 04:12:47;;;;;;;7.05;6.35;;;;;;;14.74;98.29;101074.47;3584004;39;20090;-57
2021/06/23 04:15:15;;;;;;;7.82;7.03;;;;;;;14.94;96.25;101075.63;3582163;39;20785;-57
2021/06/23 04:17:44;;;;;;;10.43;6.78;;;;;;;15.20;94.52;101077.69;3580594;39;20083;-56
2021/06/23 04:20:12;;;;;;;7.78;6.53;;;;;;;15.07;94.51;101087.00;3585722;39;20052;-59
2021/06/23 04:22:39;;;;;;;9.27;6.38;;;;;;;15.07;95.99;101080.94;3583069;39;20053;-55
2021/06/23 04:25:09;;;;;;;9.20;6.45;;;;;;;15.34;95.45;101089.03;3579185;39;20653;-58
2021/06/23 04:27:37;;;;;;;7.95;6.30;;;;;;;15.61;94.11;101085.06;3585228;39;20146;-57
2021/06/23 04:30:07;;;;;;;13.85;6.00;;;;;;;15.75;93.16;101081.81;3585771;39;20103;-59
2021/06/23 04:32:35;;;;;;;11.70;7.22;;;;;;;16.06;91.29;101089.03;3584165;39;20080;-55
2021/06/23 04:35:05;;;;;;;13.07;7.75;;;;;;;16.15;89.33;101087.41;3585992;39;20076;-55
2021/06/23 04:37:34;;;;;;;12.45;6.72;;;;;;;16.03;92.32;101101.03;3585358;39;20373;-56
2021/06/23 04:40:03;;;;;;;9.40;7.22;;;;;;;16.36;89.77;101098.75;3585938;39;20108;-55
2021/06/23 04:42:30;;;;;;;10.70;7.13;;;;;;;16.28;90.36;101098.72;3585012;39;20079;-58
2021/06/23 04:44:58;;;;;;;10.18;6.60;;;;;;;16.21;90.45;101100.34;3585835;39;20096;-52
2021/06/23 04:47:25;;;;;;;11.57;7.30;;;;;;;16.53;90.25;101102.34;3584897;39;20104;-56
2021/06/23 04:49:52;;;;;;;14.85;7.72;;;;;;;16.19;91.70;101103.81;3585839;39;20145;-58
2021/06/23 04:52:19;;;;;;;8.82;6.55;;;;;;;16.89;87.43;101117.31;3585026;39;20603;-55
2021/06/23 04:54:46;;;;;;;13.20;7.88;;;;;;;16.78;86.32;101114.66;3585577;39;20060;-58
2021/06/23 04:57:13;;;;;;;11.07;6.85;;;;;;;16.80;87.84;101112.94;3585383;39;20062;-55
2021/06/23 04:59:40;;;;;;;12.55;7.22;;;;;;;17.08;85.40;101117.44;3585167;39;20055;-57
2021/06/23 05:02:07;;;;;;;11.75;7.40;;;;;;;17.05;85.14;101113.97;3584160;39;20410;-56
2021/06/23 05:04:35;;;;;;;10.15;7.45;;;;;;;17.50;83.97;101116.78;3584961;39;20078;-56
2021/06/23 05:07:04;;;;;;;11.30;7.43;;;;;;;17.53;83.38;101119.38;3585829;39;20070;-55
2021/06/23 05:09:31;;;;;;;12.52;7.35;;;;;;;17.86;82.85;101117.78;3585416;39;20677;-57
2021/06/23 05:12:00;;;;;;;10.90;7.05;;;;;;;18.01;81.66;101116.09;3585762;39;20100;-56
2021/06/23 05:14:27;;;;;;;13.65;8.52;;;;;;;18.14;80.27;101118.72;3584854;39;20037;-53
2021/06/23 05:16:54;;;;;;;10.23;7.18;;;;;;;18.09;80.55;101118.72;3585559;39;20084;-51
2021/06/23 05:19:21;;;;;;;9.32;6.50;;;;;;;18.34;78.48;101122.19;3584743;39;20641;-53
2021/06/23 05:21:50;;;;;;;16.85;7.20;;;;;;;18.13;79.64;101123.03;3585676;39;20346;-56
2021/06/23 05:24:18;;;;;;;17.40;8.10;;;;;;;18.16;81.29;101124.75;3581595;39;20092;-54
2021/06/23 05:26:45;;;;;;;19.02;7.93;;;;;;;18.25;82.04;101132.53;3585134;39;20056;-58
2021/06/23 05:29:12;;;;;;;10.27;7.05;;;;;;;18.58;78.80;101131.72;3585530;39;20422;-54
2021/06/23 05:31:39;;;;;;;8.95;6.55;;;;;;;19.03;76.26;101130.81;3584622;39;20446;-56
2021/06/23 05:34:06;;;;;;;19.42;7.80;;;;;;;18.71;79.01;101140.38;3580043;39;20432;-57
2021/06/23 05:36:33;;;;;;;14.32;7.28;;;;;;;18.99;76.81;101131.69;3584853;39;20093;-53
2021/06/23 05:39:01;;;;;;;13.18;6.25;;;;;;;19.34;73.78;101133.34;3585180;39;20060;-55
2021/06/23 05:41:28;;;;;;;9.23;5.22;;;;;;;19.19;72.76;101129.06;3584713;39;20041;-54
2021/06/23 05:43:55;;;;;;;6.97;5.10;;;;;;;19.30;73.71;101124.69;3585370;39;20115;-56
2021/06/23 05:46:22;;;;;;;6.90;5.18;;;;;;;19.70;73.72;101140.16;3584802;39;20371;-53
2021/06/23 05:48:49;;;;;;;11.15;6.20;;;;;;;19.95;70.51;101135.69;3585247;39;20053;-58
2021/06/23 05:51:16;;;;;;;7.68;5.70;;;;;;;19.84;70.40;101142.69;3585132;39;20067;-54
2021/06/23 05:53:44;;;;;;;9.52;5.55;;;;;;;19.99;71.41;101139.13;3583639;40;20060;-55
2021/06/23 05:56:14;;;;;;;11.27;4.95;;;;;;;20.16;69.88;101139.91;3618407;22;20093;-54
2021/06/23 05:58:41;;;;;;;8.52;5.05;;;;;;;20.28;68.92;101146.75;3580981;40;20048;-52
2021/06/23 06:01:08;;;;;;;6.50;5.30;;;;;;;20.04;70.60;101153.81;3582366;40;20097;-48
2021/06/23 06:03:35;;;;;;;8.05;4.93;;;;;;;19.87;69.21;101160.84;3582947;40;20080;-50
2021/06/23 06:06:02;;;;;;;8.98;4.72;;;;;;;19.92;69.14;101158.22;3586969;40;20064;-50
2021/06/23 06:08:30;;;;;;;9.05;5.90;;;;;;;19.82;68.50;101152.22;3593015;40;20056;-50
2021/06/23 06:10:57;;;;;;;8.80;5.07;;;;;;;19.92;69.64;101159.13;3592716;40;20084;-48
2021/06/23 06:13:24;;;;;;;8.18;4.90;;;;;;;20.29;70.26;101162.34;3592995;40;20107;-50
2021/06/23 06:15:51;;;;;;;10.10;5.50;;;;;;;20.64;66.52;101161.25;3593605;40;20128;-55
2021/06/23 06:18:18;;;;;;;14.80;5.40;;;;;;;19.90;67.47;101159.97;3592139;40;20064;-47
2021/06/23 06:20:46;;;;;;;7.63;4.82;;;;;;;20.14;69.62;101161.56;3595461;40;20087;-50
2021/06/23 06:23:13;;;;;;;9.25;5.45;;;;;;;20.83;64.05;101165.41;3596131;40;20379;-50
2021/06/23 06:25:40;;;;;;;8.73;5.40;;;;;;;20.07;67.70;101171.16;3584541;40;20077;-50
2021/06/23 06:28:07;;;;;;;9.20;5.03;;;;;;;20.94;65.39;101182.66;3584458;40;20092;-49
2021/06/23 06:30:35;;;;;;;13.57;5.63;;;;;;;20.72;64.69;101184.63;3584703;40;20813;-51
2021/06/23 06:33:02;;;;;;;10.13;5.53;;;;;;;20.71;63.27;101180.28;3584819;40;20490;-52
2021/06/23 06:35:29;;;;;;;6.82;4.85;;;;;;;20.21;65.30;101181.47;3587864;39;20094;-48
2021/06/23 06:37:56;;;;;;;10.10;4.97;;;;;;;20.66;67.08;101177.72;3590337;39;20096;-49
2021/06/23 06:40:24;;;;;;;5.97;4.90;;;;;;;20.58;64.01;101184.72;3593643;39;20084;-51
2021/06/23 06:42:52;;;;;;;8.30;5.10;;;;;;;20.27;64.96;101187.50;3593652;39;20499;-49
2021/06/23 06:45:19;;;;;;;14.07;5.45;;;;;;;20.70;63.68;101183.75;3592272;39;20056;-53
2021/06/23 06:47:46;;;;;;;10.38;4.90;;;;;;;20.54;66.23;101189.09;3595323;39;20146;-48
2021/06/23 06:50:13;;;;;;;8.68;4.55;;;;;;;20.80;65.71;101191.50;3595374;39;20076;-49
2021/06/23 06:52:40;;;;;;;7.13;4.50;;;;;;;20.29;65.24;101196.19;3594992;39;20109;-52
2021/06/23 06:55:08;;;;;;;8.63;4.03;;;;;;;20.47;65.26;101194.31;3593856;39;20044;-52
2021/06/23 06:57:36;;;;;;;9.90;3.53;;;;;;;20.68;62.14;101198.53;3594431;39;20108;-52
2021/06/23 07:00:05;;;;;;;6.18;3.70;;;;;;;20.96;60.92;101191.34;3593823;39;20072;-51
2021/06/23 07:02:32;;;;;;;6.40;3.10;;;;;;;20.79;60.36;101191.47;3594324;39;20437;-51
2021/06/23 07:04:59;;;;;;;9.15;4.00;;;;;;;20.94;59.71;101193.97;3594290;39;20048;-55
2021/06/23 07:07:26;;;;;;;4.90;3.05;;;;;;;21.35;58.45;101196.22;3594617;39;20076;-51
2021/06/23 07:09:53;;;;;;;6.40;3.97;;;;;;;21.07;60.30;101197.31;3594386;39;20100;-54
2021/06/23 07:12:20;;;;;;;8.98;4.20;;;;;;;21.28;59.85;101193.63;3594426;39;20084;-51
2021/06/23 07:14:47;;;;;;;8.35;3.85;;;;;;;21.85;59.78;101196.47;3594207;39;20110;-52
2021/06/23 07:17:14;;;;;;;6.32;3.45;;;;;;;22.08;57.43;101190.94;3594415;39;20799;-53
2021/06/23 07:19:42;;;;;;;5.45;4.05;;;;;;;22.35;57.06;101184.50;3594375;39;20054;-51
2021/06/23 07:22:09;;;;;;;7.90;3.55;;;;;;;22.44;57.98;101180.91;3594274;39;20092;-47
2021/06/23 07:24:36;;;;;;;5.82;3.70;;;;;;;22.70;56.11;101183.97;3594529;39;20384;-51
2021/06/23 07:27:04;;;;;;;7.63;3.00;;;;;;;22.74;53.97;101188.25;3590724;39;20083;-48
2021/06/23 07:29:31;;;;;;;6.68;3.22;;;;;;;22.44;52.14;101184.38;3594404;39;20091;-50
2021/06/23 07:32:06;;;;;;;4.75;3.13;;;;;;;22.52;52.41;101189.47;3593836;39;20100;-55
2021/06/23 07:36:33;;;;;;;7.00;3.97;;;;;;;22.83;52.85;101188.09;3594004;39;20087;-46
2021/06/23 07:37:24;;;;;;;5.43;3.00;;;;;;;23.07;49.61;101192.06;3590888;39;20396;-54
2021/06/23 07:39:52;;;;;;;6.47;3.30;;;;;;;23.38;48.38;101199.31;3594139;39;20062;-50
2021/06/23 07:42:20;;;;;;;6.70;2.85;;;;;;;23.18;49.14;101189.25;3591035;39;20029;-48
2021/06/23 07:44:56;;;;;;;9.25;3.78;;;;;;;22.77;49.45;101188.19;3593955;39;20082;-50
2021/06/23 07:47:25;;;;;;;;;;;;;;;23.24;49.17;101198.72;3591723;39;20051;-52
2021/06/23 07:49:53;;;;;;;4.30;2.90;;;;;;;22.82;50.35;101195.94;3593957;39;19943;-53
2021/06/23 07:52:27;;;;;;;9.23;3.08;;;;;;;22.82;52.95;101199.41;3593825;39;20060;-53
2021/06/23 08:10:48;;;;;;;5.82;3.20;;;;;;;24.13;46.69;101196.03;3593981;39;20052;-50
2021/06/23 08:13:16;;;;;;;8.48;3.15;;;;;;;24.31;47.07;101193.88;3593988;39;20422;-53
2021/06/23 08:15:46;;;;;;;6.70;3.60;;;;;;;24.30;45.42;101192.16;3593659;39;20126;-55
2021/06/23 08:18:15;;;;;;;5.25;3.03;;;;;;;24.53;46.13;101189.91;3593713;39;20862;-50
2021/06/23 08:20:42;;;;;;;7.75;3.35;;;;;;;24.43;46.27;101184.94;3593701;39;20088;-55
2021/06/23 08:23:10;;;;;;;5.93;3.53;;;;;;;24.08;48.47;101197.91;3593059;39;20095;-52
2021/06/23 08:25:38;;;;;;;9.00;3.67;;;;;;;23.32;49.36;101195.06;3593549;39;20064;-48
2021/06/23 08:28:05;;;;;;;7.60;3.85;;;;;;;23.96;49.76;101198.16;3593603;39;20453;-47
2021/06/23 08:30:33;;;;;;;7.43;3.60;;;;;;;24.09;46.60;101198.75;3593695;39;20063;-50
2021/06/23 08:33:01;;;;;;;5.10;3.35;;;;;;;24.41;49.21;101202.44;3593517;39;20088;-50
2021/06/23 08:35:28;;;;;;;6.50;3.38;;;;;;;24.67;47.97;101197.41;3593553;39;20060;-47
2021/06/23 08:37:56;;;;;;;7.55;3.67;;;;;;;24.64;49.03;101193.13;3593252;39;20060;-48
2021/06/23 08:40:24;;;;;;;8.48;3.38;;;;;;;24.75;46.49;101203.34;3593548;39;20437;-50
2021/06/23 08:42:51;;;;;;;8.85;3.55;;;;;;;24.36;46.18;101192.03;3593741;39;20366;-49
2021/06/23 08:45:18;;;;;;;7.35;4.35;;;;;;;24.42;46.02;101188.44;3590314;39;20107;-52
2021/06/23 08:47:47;;;;;;;10.43;3.78;;;;;;;23.32;49.71;101187.22;3593691;39;20063;-52
2021/06/23 08:50:20;;;;;;;9.90;3.97;;;;;;;24.03;49.61;101196.25;3593880;39;20835;-48
2021/06/23 08:52:48;;;;;;;9.63;4.03;;;;;;;23.95;48.86;101198.22;3593551;39;20067;-50
2021/06/23 08:55:19;;;;;;;7.93;3.50;;;;;;;24.36;48.43;101189.44;3593672;39;20047;-49
2021/06/23 08:57:52;;;;;;;7.07;3.85;;;;;;;24.07;48.20;101196.16;3593775;39;20051;-46
2021/06/23 09:00:22;;;;;;;7.32;4.20;;;;;;;23.80;47.83;101196.75;3589981;39;20080;-47
2021/06/23 09:02:49;;;;;;;11.00;4.45;;;;;;;23.94;48.91;101201.69;3593165;39;20083;-54
2021/06/23 09:05:18;;;;;;;6.82;4.25;;;;;;;23.04;49.27;101202.56;3593740;39;20106;-50
2021/06/23 09:07:59;;;;;;;8.13;4.50;;;;;;;23.94;47.99;101209.53;3593636;39;20353;-50
2021/06/23 09:10:26;;;;;;;8.65;3.80;;;;;;;23.43;51.71;101204.44;3593180;39;20575;-49
2021/06/23 09:13:09;;;;;;;9.30;3.95;;;;;;;23.89;49.00;101218.34;3593285;39;20059;-49
2021/06/23 09:16:01;;;;;;;9.40;4.35;;;;;;;23.76;48.87;101213.44;3592834;39;20040;-50
2021/06/23 09:18:34;;;;;;;10.48;4.05;;;;;;;24.33;50.17;101213.91;3590629;39;20082;-49
2021/06/23 09:21:12;;;;;;;8.68;4.32;;;;;;;24.46;47.03;101211.03;3592214;39;20056;-49
2021/06/23 09:23:42;;;;;;;9.20;4.70;;;;;;;24.57;46.37;101222.13;3591427;39;20088;-47
2021/06/23 09:26:17;;;;;;;9.70;4.90;;;;;;;24.78;47.18;101213.75;3592618;39;20071;-46
2021/06/23 09:28:46;;;;;;;8.63;5.30;;;;;;;24.35;46.58;101211.25;3593514;39;20063;-47
2021/06/23 09:31:13;;;;;;;8.77;4.70;;;;;;;25.06;48.43;101223.53;3593283;39;20298;-48
2021/06/23 09:33:40;;;;;;;11.88;4.78;;;;;;;25.28;46.99;101221.22;3593227;39;20056;-51
2021/06/23 09:36:12;;;;;;;9.18;4.97;;;;;;;24.12;48.38;101217.84;3592544;39;20373;-51
2021/06/23 09:38:59;;;;;;;8.90;4.40;;;;;;;25.60;46.32;101236.91;3593046;39;20784;-51
2021/06/23 09:41:27;;;;;;;10.05;4.60;;;;;;;25.69;45.11;101230.56;3593400;39;20044;-53
2021/06/23 09:44:10;;;;;;;6.80;4.28;;;;;;;25.78;43.74;101222.47;3593274;39;20051;-53
2021/06/23 09:46:43;;;;;;;8.80;4.25;;;;;;;26.32;44.16;101224.34;3593402;39;20100;-46
2021/06/23 09:49:10;;;;;;;9.23;4.45;;;;;;;26.10;44.26;101225.91;3592686;39;20383;-52
2021/06/23 09:51:39;;;;;;;11.35;5.07;;;;;;;26.05;45.15;101230.44;3593241;39;20131;-55
2021/06/23 09:54:06;;;;;;;8.25;5.25;;;;;;;25.92;42.28;101234.31;3592235;39;20048;-53
2021/06/23 09:56:54;;;;;;;6.25;3.88;;;;;;;25.64;43.63;101240.31;3593010;39;20056;-53
2021/06/23 09:59:33;;;;;;;8.93;4.35;;;;;;;26.01;42.83;101241.91;3593199;39;20079;-52
2021/06/23 10:02:01;;;;;;;8.30;4.13;;;;;;;25.23;46.17;101230.97;3592958;39;20059;-46
2021/06/23 10:04:36;;;;;;;9.95;4.65;;;;;;;24.72;45.74;101240.06;3593116;39;20133;-47
2021/06/23 10:07:04;;;;;;;11.20;4.43;;;;;;;24.84;46.88;101242.41;3592858;39;20118;-50
2021/06/23 10:09:32;;;;;;;7.65;4.57;;;;;;;24.21;47.18;101240.34;3592984;39;20056;-50
2021/06/23 10:12:01;;;;;;;9.05;3.83;;;;;;;24.44;49.48;101241.63;3592756;39;20052;-54
2021/06/23 10:14:32;;;;;;;9.35;4.40;;;;;;;24.50;48.11;101241.50;3593016;39;20066;-49
2021/06/23 10:17:00;;;;;;;12.27;5.00;;;;;;;25.07;45.07;101246.22;3592608;39;20074;-48
2021/06/23 10:19:29;;;;;;;8.40;4.97;;;;;;;24.35;48.10;101235.66;3593058;39;20056;-48
2021/06/23 10:22:02;;;;;;;11.30;4.75;;;;;;;24.35;48.77;101237.41;3594269;39;20075;-50
2021/06/23 10:24:52;;;;;;;10.52;4.85;;;;;;;25.29;46.55;101238.69;3594261;39;20040;-48
2021/06/23 10:27:22;;;;;;;9.30;5.03;;;;;;;24.35;46.59;101240.03;3591145;39;20088;-46
2021/06/23 10:29:53;;;;;;;10.52;4.32;;;;;;;24.28;49.36;101246.31;3594317;39;20084;-49
2021/06/23 10:32:21;;;;;;;8.63;4.88;;;;;;;25.00;47.08;101242.88;3590220;39;20052;-49
2021/06/23 10:34:49;;;;;;;8.05;5.05;;;;;;;24.90;46.39;101244.00;3594545;39;20502;-51
2021/06/23 10:37:18;;;;;;;10.10;4.70;;;;;;;25.24;46.48;101251.06;3594436;39;20052;-50
2021/06/23 10:39:50;;;;;;;8.30;5.35;;;;;;;25.38;43.54;101256.78;3594174;39;20052;-48
2021/06/23 10:42:24;;;;;;;11.15;5.32;;;;;;;25.03;43.70;101261.16;3594337;39;20064;-51
2021/06/23 10:44:54;;;;;;;11.55;5.63;;;;;;;24.79;44.69;101265.25;3594351;39;20056;-54
2021/06/23 10:47:41;;;;;;;9.02;4.22;;;;;;;24.70;45.12;101267.22;3591078;39;20354;-52
2021/06/23 10:50:17;;;;;;;10.15;4.18;;;;;;;24.39;46.45;101274.00;3593853;39;20103;-50
2021/06/23 10:52:46;;;;;;;12.82;4.65;;;;;;;24.15;46.12;101271.91;3594417;39;20080;-51
2021/06/23 10:55:22;;;;;;;9.55;4.75;;;;;;;23.97;49.44;101267.91;3594456;39;20131;-51
2021/06/23 10:57:55;;;;;;;8.48;3.95;;;;;;;23.74;49.26;101275.34;3594126;39;20109;-50
2021/06/23 11:00:24;;;;;;;7.05;4.18;;;;;;;23.24;51.17;101274.50;3591310;39;20092;-46
2021/06/23 11:03:07;;;;;;;9.25;4.88;;;;;;;23.57;50.15;101280.88;3594248;39;20055;-50
2021/06/23 11:05:38;;;;;;;10.00;5.07;;;;;;;23.41;48.90;101282.06;3591999;39;20040;-46
2021/06/23 11:08:27;;;;;;;9.32;4.47;;;;;;;23.75;48.60;101269.22;3594310;39;20469;-46
2021/06/23 11:10:56;;;;;;;10.10;4.78;;;;;;;24.04;48.58;101279.97;3594152;39;20095;-46
2021/06/23 11:13:31;;;;;;;7.18;4.00;;;;;;;24.25;47.13;101275.19;3594491;39;20064;-56
2021/06/23 11:15:59;;;;;;;7.35;4.53;;;;;;;24.30;46.81;101271.56;3594205;39;20048;-52
2021/06/23 11:18:37;;;;;;;12.38;4.43;;;;;;;24.09;47.18;101280.75;3594363;39;20066;-49
2021/06/23 11:21:08;;;;;;;8.48;4.85;;;;;;;23.73;46.88;101278.88;3594231;39;20037;-56
2021/06/23 11:23:42;;;;;;;9.40;4.40;;;;;;;23.93;49.13;101281.94;3594244;39;20051;-57
2021/06/23 11:26:29;;;;;;;6.57;3.83;;;;;;;24.06;47.06;101275.56;3593564;39;20095;-50
2021/06/23 11:29:10;;;;;;;6.88;3.72;;;;;;;24.18;48.61;101276.22;3586556;39;20059;-55
2021/06/23 11:31:46;;;;;;;8.55;4.28;;;;;;;23.88;47.97;101284.66;3593781;39;20052;-45
2021/06/23 11:34:36;;;;;;;9.43;4.28;;;;;;;23.53;49.80;101282.69;3594014;39;20055;-46
2021/06/23 11:37:05;;;;;;;7.63;4.40;;;;;;;23.89;48.74;101288.97;3593602;39;20137;-47
2021/06/23 11:39:32;;;;;;;9.40;4.20;;;;;;;23.47;49.76;101282.78;3594126;39;20095;-49
2021/06/23 11:41:59;;;;;;;8.85;5.00;;;;;;;23.17;48.13;101280.72;3594039;39;20056;-49
2021/06/23 11:44:28;;;;;;;10.88;4.68;;;;;;;23.03;50.66;101280.97;3594089;39;20043;-49
2021/06/23 11:47:00;;;;;;;8.70;4.10;;;;;;;22.79;50.63;101275.22;3593831;39;20060;-51
2021/06/23 11:49:32;;;;;;;10.30;4.50;;;;;;;22.50;54.06;101267.78;3593960;39;20149;-47